createdAt,value
2018-06-27T00:01:04.875Z,16.76
2018-06-27T00:03:34.197Z,16.88
2018-06-27T00:06:04.015Z,16.80
2018-06-27T00:08:33.331Z,16.78
2018-06-27T00:11:03.387Z,16.67
2018-06-27T00:13:32.942Z,16.70
2018-06-27T00:16:02.646Z,16.66
2018-06-27T00:18:32.560Z,16.66
2018-06-27T00:21:01.948Z,16.70
2018-06-27T00:23:31.243Z,16.50
2018-06-27T00:26:01.343Z,16.66
2018-06-27T00:28:30.759Z,16.79
2018-06-27T00:31:00.499Z,16.68
2018-06-27T00:33:29.781Z,16.61
2018-06-27T00:35:59.493Z,16.71
2018-06-27T00:38:29.212Z,16.64
2018-06-27T00:40:58.779Z,16.40
2018-06-27T00:43:28.086Z,16.48
2018-06-27T00:45:58.470Z,16.45
2018-06-27T00:48:27.810Z,16.37
2018-06-27T00:50:57.441Z,16.27
2018-06-27T00:53:32.219Z,16.33
2018-06-27T00:56:02.343Z,16.41
2018-06-27T00:58:32.124Z,16.42
2018-06-27T01:01:02.826Z,16.25
2018-06-27T01:03:32.131Z,16.21
2018-06-27T01:06:01.468Z,16.05
2018-06-27T01:08:30.817Z,15.94
2018-06-27T01:11:00.464Z,15.89
2018-06-27T01:13:30.589Z,15.84
2018-06-27T01:16:00.374Z,15.76
2018-06-27T01:18:29.726Z,15.71
2018-06-27T01:20:59.064Z,15.56
2018-06-27T01:23:28.396Z,15.52
2018-06-27T01:25:57.804Z,15.32
2018-06-27T01:28:27.460Z,15.44
2018-06-27T01:30:57.344Z,15.51
2018-06-27T01:33:26.907Z,15.61
2018-06-27T01:35:56.224Z,15.53
2018-06-27T01:38:25.912Z,15.55
2018-06-27T01:40:55.641Z,15.41
2018-06-27T01:43:25.206Z,15.31
2018-06-27T01:45:54.528Z,15.02
2018-06-27T01:48:23.923Z,15.02
2018-06-27T01:50:53.630Z,15.17
2018-06-27T01:53:23.334Z,15.06
2018-06-27T01:55:53.004Z,15.11
2018-06-27T01:58:22.364Z,15.13
2018-06-27T02:00:51.704Z,14.96
2018-06-27T02:03:21.983Z,14.96
2018-06-27T02:05:51.659Z,15.07
2018-06-27T02:08:20.995Z,15.06
2018-06-27T02:10:50.651Z,15.15
2018-06-27T02:13:19.943Z,15.34
2018-06-27T02:15:49.669Z,15.24
2018-06-27T02:18:19.931Z,15.33
2018-06-27T02:20:49.367Z,15.48
2018-06-27T02:23:18.686Z,15.45
2018-06-27T02:25:48.317Z,15.40
2018-06-27T02:28:17.881Z,15.52
2018-06-27T02:30:47.672Z,15.44
2018-06-27T02:33:22.787Z,15.53
2018-06-27T02:35:52.105Z,14.98
2018-06-27T02:38:21.973Z,15.20
2018-06-27T02:40:51.612Z,15.32
2018-06-27T02:43:21.440Z,15.35
2018-06-27T02:45:51.560Z,15.31
2018-06-27T02:48:20.923Z,15.30
2018-06-27T02:50:50.625Z,15.34
2018-06-27T02:53:20.228Z,15.43
2018-06-27T02:55:50.509Z,15.36
2018-06-27T02:58:19.841Z,15.16
2018-06-27T03:00:49.981Z,15.06
2018-06-27T03:03:19.649Z,15.29
2018-06-27T03:05:49.006Z,15.06
2018-06-27T03:08:18.300Z,15.24
2018-06-27T03:10:48.436Z,15.23
2018-06-27T03:13:18.069Z,15.15
2018-06-27T03:15:47.702Z,15.12
2018-06-27T03:18:17.010Z,14.97
2018-06-27T03:20:46.706Z,14.88
2018-06-27T03:23:16.605Z,14.86
2018-06-27T03:25:46.578Z,14.91
2018-06-27T03:28:15.947Z,14.80
2018-06-27T03:30:45.571Z,15.01
2018-06-27T03:33:15.332Z,14.99
2018-06-27T03:35:44.968Z,15.07
2018-06-27T03:38:15.214Z,14.96
2018-06-27T03:40:44.568Z,14.93
2018-06-27T03:43:13.898Z,14.91
2018-06-27T03:45:43.304Z,14.91
2018-06-27T03:48:13.095Z,14.81
2018-06-27T03:50:44.052Z,14.95
2018-06-27T03:53:13.403Z,15.09
2018-06-27T03:55:42.808Z,15.10
2018-06-27T03:58:12.329Z,15.04
2018-06-27T04:00:42.123Z,15.23
2018-06-27T04:03:12.624Z,15.24
2018-06-27T04:05:41.990Z,15.25
2018-06-27T04:08:11.322Z,15.33
2018-06-27T04:10:40.677Z,15.27
2018-06-27T04:13:10.178Z,15.21
2018-06-27T04:15:39.501Z,15.25
2018-06-27T04:18:08.944Z,15.18
2018-06-27T04:20:40.045Z,15.21
2018-06-27T04:23:09.764Z,15.21
2018-06-27T04:25:40.781Z,15.26
2018-06-27T04:28:10.402Z,15.23
2018-06-27T04:30:41.278Z,15.15
2018-06-27T04:33:10.589Z,15.29
2018-06-27T04:35:40.366Z,15.20
2018-06-27T04:38:09.678Z,15.32
2018-06-27T04:40:39.442Z,15.37
2018-06-27T04:43:08.828Z,15.39
2018-06-27T04:45:39.385Z,15.41
2018-06-27T04:48:08.711Z,15.38
2018-06-27T04:50:38.143Z,15.44
2018-06-27T04:53:07.480Z,15.54
2018-06-27T04:55:37.236Z,15.61
2018-06-27T04:58:06.704Z,15.55
2018-06-27T05:00:36.163Z,15.64
2018-06-27T05:03:05.472Z,15.83
2018-06-27T05:05:35.028Z,15.83
2018-06-27T05:08:04.393Z,15.97
2018-06-27T05:10:34.953Z,16.04
2018-06-27T05:13:04.302Z,16.11
2018-06-27T05:15:34.299Z,16.12
2018-06-27T05:18:03.603Z,16.23
2018-06-27T05:20:32.983Z,16.16
2018-06-27T05:23:02.686Z,16.16
2018-06-27T05:25:32.049Z,16.29
2018-06-27T05:28:01.348Z,16.48
2018-06-27T05:30:31.137Z,16.43
2018-06-27T05:33:00.543Z,16.56
2018-06-27T05:35:29.944Z,16.55
2018-06-27T05:38:00.210Z,16.43
2018-06-27T05:40:29.557Z,16.60
2018-06-27T05:42:58.885Z,16.74
2018-06-27T05:45:28.234Z,16.82
2018-06-27T05:47:57.704Z,16.99
2018-06-27T05:50:28.041Z,17.09
2018-06-27T05:52:57.376Z,17.16
2018-06-27T05:55:27.083Z,17.22
2018-06-27T05:57:56.935Z,17.26
2018-06-27T06:00:26.661Z,17.34
2018-06-27T06:02:56.736Z,17.27
2018-06-27T06:05:26.312Z,17.35
2018-06-27T06:07:56.006Z,17.49
2018-06-27T06:10:25.659Z,17.59
2018-06-27T06:12:55.948Z,17.64
2018-06-27T06:15:25.334Z,17.73
2018-06-27T06:17:55.744Z,17.86
2018-06-27T06:20:25.401Z,17.95
2018-06-27T06:22:54.753Z,18.14
2018-06-27T06:25:24.487Z,18.20
2018-06-27T06:27:54.491Z,18.29
2018-06-27T06:30:24.254Z,18.31
2018-06-27T06:32:53.664Z,18.38
2018-06-27T06:35:23.040Z,18.61
2018-06-27T06:37:53.263Z,18.78
2018-06-27T06:40:23.576Z,18.87
2018-06-27T06:42:53.353Z,18.97
2018-06-27T06:45:23.024Z,19.01
2018-06-27T06:47:52.391Z,19.06
2018-06-27T06:50:22.462Z,18.79
2018-06-27T06:52:53.260Z,19.00
2018-06-27T06:55:22.991Z,19.07
2018-06-27T06:57:53.193Z,19.19
2018-06-27T07:00:23.020Z,19.26
2018-06-27T07:02:52.683Z,19.34
2018-06-27T07:05:22.308Z,19.43
2018-06-27T07:07:51.925Z,19.55
2018-06-27T07:10:21.261Z,19.66
2018-06-27T07:12:50.963Z,19.76
2018-06-27T07:15:20.662Z,19.88
2018-06-27T07:17:50.079Z,19.87
2018-06-27T07:20:19.754Z,19.97
2018-06-27T07:22:49.981Z,20.12
2018-06-27T07:25:19.376Z,20.15
2018-06-27T07:27:49.106Z,20.23
2018-06-27T07:30:22.181Z,20.42
2018-06-27T07:32:51.804Z,20.35
2018-06-27T07:35:21.555Z,20.49
2018-06-27T07:37:51.189Z,20.49
2018-06-27T07:40:20.899Z,20.46
2018-06-27T07:42:50.241Z,20.46
2018-06-27T07:45:19.981Z,20.75
2018-06-27T07:47:49.360Z,21.01
2018-06-27T07:50:19.028Z,21.13
2018-06-27T07:52:48.400Z,21.26
2018-06-27T07:55:17.747Z,21.30
2018-06-27T07:57:47.444Z,21.39
2018-06-27T08:00:17.016Z,21.59
2018-06-27T08:02:46.357Z,21.83
2018-06-27T08:05:15.980Z,21.90
2018-06-27T08:07:45.341Z,21.87
2018-06-27T08:10:15.128Z,21.81
2018-06-27T08:12:44.922Z,21.85
2018-06-27T08:15:14.600Z,21.93
2018-06-27T08:20:12.000Z,22.14
2018-06-27T08:22:41.345Z,22.12
2018-06-27T08:25:10.960Z,22.31
2018-06-27T08:27:40.333Z,22.51
2018-06-27T08:30:10.119Z,22.59
2018-06-27T08:32:39.456Z,22.63
2018-06-27T08:35:10.070Z,22.44
2018-06-27T08:37:39.441Z,22.61
2018-06-27T08:40:08.792Z,22.45
2018-06-27T08:42:38.581Z,22.47
2018-06-27T08:45:07.898Z,22.47
2018-06-27T08:47:37.297Z,22.64
2018-06-27T08:50:06.667Z,22.84
2018-06-27T08:52:36.449Z,22.94
2018-06-27T08:55:06.116Z,22.80
2018-06-27T08:57:36.129Z,22.99
2018-06-27T09:00:05.490Z,23.09
2018-06-27T09:02:35.305Z,23.06
2018-06-27T09:05:04.995Z,22.87
2018-06-27T09:07:34.340Z,23.13
2018-06-27T09:10:05.108Z,22.79
2018-06-27T09:12:34.456Z,23.05
2018-06-27T09:15:03.864Z,23.25
2018-06-27T09:17:33.172Z,23.09
2018-06-27T09:20:03.977Z,23.28
2018-06-27T09:22:34.437Z,23.42
2018-06-27T09:25:04.868Z,23.23
2018-06-27T09:27:34.180Z,23.37
2018-06-27T09:30:03.918Z,23.53
2018-06-27T09:32:33.256Z,23.85
2018-06-27T09:35:02.683Z,23.84
2018-06-27T09:37:32.356Z,23.84
2018-06-27T09:40:01.724Z,23.99
2018-06-27T09:42:31.060Z,23.82
2018-06-27T09:45:00.450Z,24.43
2018-06-27T09:47:30.484Z,24.30
2018-06-27T09:49:59.837Z,24.24
2018-06-27T09:52:29.414Z,24.37
2018-06-27T09:54:59.824Z,24.55
2018-06-27T09:57:29.135Z,24.42
2018-06-27T09:59:58.469Z,24.62
2018-06-27T10:02:27.860Z,24.50
2018-06-27T10:04:57.640Z,24.77
2018-06-27T10:07:27.259Z,24.95
2018-06-27T10:09:57.036Z,24.74
2018-06-27T10:12:27.760Z,25.28
2018-06-27T10:14:57.596Z,25.45
2018-06-27T10:17:26.936Z,25.49
2018-06-27T10:19:56.264Z,25.34
2018-06-27T10:22:25.927Z,25.74
2018-06-27T10:24:55.274Z,25.83
2018-06-27T10:27:24.633Z,26.16
2018-06-27T10:29:54.446Z,25.54
2018-06-27T10:32:24.019Z,25.52
2018-06-27T10:34:53.380Z,25.34
2018-06-27T10:37:23.255Z,25.79
2018-06-27T10:39:52.615Z,26.02
2018-06-27T10:42:22.269Z,26.14
2018-06-27T10:44:51.645Z,26.13
2018-06-27T10:47:21.508Z,26.05
2018-06-27T10:49:51.157Z,25.84
2018-06-27T10:52:21.747Z,26.22
2018-06-27T10:54:52.773Z,26.24
2018-06-27T10:57:23.284Z,26.17
2018-06-27T10:59:53.584Z,26.73
2018-06-27T11:02:23.448Z,26.40
2018-06-27T11:04:52.755Z,26.60
2018-06-27T11:07:22.130Z,26.76
2018-06-27T11:09:51.748Z,27.31
2018-06-27T11:12:21.107Z,26.56
2018-06-27T11:14:51.458Z,27.26
2018-06-27T11:17:20.787Z,26.97
2018-06-27T11:19:50.096Z,27.20
2018-06-27T11:22:19.459Z,27.37
2018-06-27T11:24:49.041Z,27.67
2018-06-27T11:27:18.642Z,27.46
2018-06-27T11:29:48.237Z,27.33
2018-06-27T11:32:17.908Z,27.22
2018-06-27T11:34:47.590Z,27.02
2018-06-27T11:37:17.583Z,27.10
2018-06-27T11:39:46.922Z,27.67
2018-06-27T11:42:16.697Z,27.82
2018-06-27T11:44:46.265Z,27.81
2018-06-27T11:47:15.633Z,27.75
2018-06-27T11:49:45.955Z,28.09
2018-06-27T11:52:15.319Z,28.06
2018-06-27T11:54:44.699Z,27.94
2018-06-27T11:57:14.468Z,28.49
2018-06-27T11:59:43.777Z,28.37
2018-06-27T12:02:13.127Z,28.45
2018-06-27T12:04:42.460Z,28.41
2018-06-27T12:07:11.835Z,28.02
2018-06-27T12:09:41.603Z,27.86
2018-06-27T12:12:10.952Z,28.51
2018-06-27T12:14:40.282Z,28.85
2018-06-27T12:17:09.606Z,28.23
2018-06-27T12:19:38.973Z,27.91
2018-06-27T12:22:08.460Z,26.61
2018-06-27T12:24:38.184Z,26.69
2018-06-27T12:27:07.556Z,27.40
2018-06-27T12:29:36.925Z,27.70
2018-06-27T12:32:06.632Z,28.24
2018-06-27T12:34:36.307Z,28.84
2018-06-27T12:37:06.553Z,28.73
2018-06-27T12:39:35.926Z,28.44
2018-06-27T12:42:06.892Z,28.68
2018-06-27T12:44:36.523Z,28.90
2018-06-27T12:47:05.899Z,28.09
2018-06-27T12:49:35.510Z,27.57
2018-06-27T12:52:05.277Z,27.88
2018-06-27T12:54:36.749Z,28.26
2018-06-27T12:57:06.893Z,28.49
2018-06-27T12:59:36.523Z,28.44
2018-06-27T13:02:06.208Z,28.66
2018-06-27T13:04:35.568Z,27.98
2018-06-27T13:07:05.185Z,26.96
2018-06-27T13:09:34.867Z,26.89
2018-06-27T13:12:04.590Z,27.49
2018-06-27T13:14:33.964Z,28.28
2018-06-27T13:17:03.520Z,28.36
2018-06-27T13:19:33.044Z,28.94
2018-06-27T13:22:03.291Z,28.51
2018-06-27T13:24:33.852Z,27.83
2018-06-27T13:27:03.656Z,27.45
2018-06-27T13:29:33.541Z,27.27
2018-06-27T13:32:04.065Z,28.02
2018-06-27T13:34:33.413Z,28.20
2018-06-27T13:37:03.037Z,29.06
2018-06-27T13:39:33.017Z,28.39
2018-06-27T13:42:02.346Z,27.59
2018-06-27T13:44:31.763Z,27.47
2018-06-27T13:47:01.152Z,28.26
2018-06-27T13:49:30.560Z,28.85
2018-06-27T13:52:00.310Z,29.11
2018-06-27T13:54:30.237Z,28.86
2018-06-27T13:56:59.650Z,29.77
2018-06-27T13:59:29.164Z,29.18
2018-06-27T14:01:58.751Z,28.35
2018-06-27T14:04:28.098Z,28.77
2018-06-27T14:06:58.356Z,28.91
2018-06-27T14:09:28.120Z,29.50
2018-06-27T14:11:57.862Z,29.22
2018-06-27T14:14:27.428Z,29.52
2018-06-27T14:16:57.816Z,29.84
2018-06-27T14:19:28.545Z,30.15
2018-06-27T14:21:58.287Z,30.22
2018-06-27T14:24:27.711Z,30.07
2018-06-27T14:26:57.304Z,29.37
2018-06-27T14:29:26.604Z,29.03
2018-06-27T14:31:55.964Z,28.80
2018-06-27T14:34:25.587Z,29.39
2018-06-27T14:36:55.105Z,29.64
2018-06-27T14:39:24.737Z,30.27
2018-06-27T14:41:54.311Z,29.88
2018-06-27T14:44:24.363Z,29.33
2018-06-27T14:46:54.542Z,28.88
2018-06-27T14:49:23.858Z,29.31
2018-06-27T14:51:53.848Z,29.68
2018-06-27T14:54:23.164Z,30.53
2018-06-27T14:56:52.561Z,30.07
2018-06-27T14:59:23.340Z,29.47
2018-06-27T15:01:52.905Z,29.73
2018-06-27T15:04:22.292Z,29.94
2018-06-27T15:06:52.021Z,29.90
2018-06-27T15:09:21.453Z,30.61
2018-06-27T15:11:50.758Z,30.73
2018-06-27T15:14:20.167Z,31.14
2018-06-27T15:16:49.586Z,30.01
2018-06-27T15:19:19.160Z,29.75
2018-06-27T15:21:49.343Z,29.53
2018-06-27T15:24:20.271Z,28.61
2018-06-27T15:26:50.305Z,29.12
2018-06-27T15:29:20.870Z,29.63
2018-06-27T15:31:50.956Z,30.74
2018-06-27T15:34:20.863Z,30.69
2018-06-27T15:36:50.468Z,31.14
2018-06-27T15:39:20.129Z,30.29
2018-06-27T15:41:49.457Z,29.37
2018-06-27T15:44:19.517Z,28.64
2018-06-27T15:46:49.748Z,28.23
2018-06-27T15:49:23.395Z,28.22
2018-06-27T15:51:52.730Z,28.04
2018-06-27T15:54:22.089Z,28.50
2018-06-27T15:56:51.516Z,29.07
2018-06-27T15:59:21.718Z,29.08
2018-06-27T16:01:51.405Z,28.78
2018-06-27T16:04:22.007Z,28.80
2018-06-27T16:06:51.321Z,29.04
2018-06-27T16:09:20.688Z,28.73
2018-06-27T16:11:50.454Z,29.23
2018-06-27T16:14:19.994Z,29.67
2018-06-27T16:16:49.440Z,29.77
2018-06-27T16:19:19.431Z,30.34
2018-06-27T16:21:49.094Z,30.40
2018-06-27T16:24:18.475Z,28.73
2018-06-27T16:26:48.685Z,28.83
2018-06-27T16:29:18.005Z,28.99
2018-06-27T16:31:47.691Z,28.90
2018-06-27T16:34:17.099Z,29.65
2018-06-27T16:36:46.922Z,29.31
2018-06-27T16:39:16.403Z,29.27
2018-06-27T16:41:46.054Z,28.84
2018-06-27T16:44:15.688Z,29.34
2018-06-27T16:46:45.460Z,29.58
2018-06-27T16:49:14.805Z,29.71
2018-06-27T16:51:44.226Z,29.94
2018-06-27T16:54:14.041Z,28.91
2018-06-27T16:56:43.598Z,28.27
2018-06-27T16:59:13.418Z,28.78
2018-06-27T17:01:42.781Z,29.21
2018-06-27T17:04:12.145Z,29.08
2018-06-27T17:06:41.450Z,28.96
2018-06-27T17:09:11.276Z,28.69
2018-06-27T17:11:41.000Z,29.19
2018-06-27T17:14:10.545Z,28.79
2018-06-27T17:16:39.930Z,28.84
2018-06-27T17:19:09.904Z,29.01
2018-06-27T17:21:39.546Z,28.62
2018-06-27T17:24:09.732Z,28.97
2018-06-27T17:26:39.153Z,29.11
2018-06-27T17:29:08.513Z,28.51
2018-06-27T17:31:38.199Z,28.46
2018-06-27T17:34:07.980Z,28.12
2018-06-27T17:36:37.694Z,27.91
2018-06-27T17:39:08.852Z,27.90
2018-06-27T17:41:38.832Z,27.83
2018-06-27T17:44:08.541Z,28.15
2018-06-27T17:46:37.910Z,28.03
2018-06-27T17:49:08.370Z,28.13
2018-06-27T17:51:38.302Z,28.33
2018-06-27T17:54:07.823Z,28.49
2018-06-27T17:56:37.152Z,27.87
2018-06-27T17:59:08.493Z,27.94
2018-06-27T18:01:38.218Z,27.30
2018-06-27T18:04:08.547Z,26.86
2018-06-27T18:06:37.994Z,27.19
2018-06-27T18:09:09.241Z,27.07
2018-06-27T18:11:39.404Z,27.18
2018-06-27T18:14:08.782Z,27.16
2018-06-27T18:16:38.190Z,26.97
2018-06-27T18:19:08.022Z,26.40
2018-06-27T18:21:37.351Z,26.72
2018-06-27T18:24:08.197Z,26.36
2018-06-27T18:26:37.547Z,25.86
2018-06-27T18:29:07.712Z,25.66
2018-06-27T18:31:38.896Z,25.85
2018-06-27T18:34:08.320Z,25.58
2018-06-27T18:36:37.639Z,25.43
2018-06-27T18:39:09.561Z,25.26
2018-06-27T18:41:39.433Z,25.49
2018-06-27T18:44:09.201Z,25.27
2018-06-27T18:46:38.536Z,25.45
2018-06-27T18:49:08.169Z,25.52
2018-06-27T18:51:37.505Z,25.64
2018-06-27T18:54:07.174Z,25.73
2018-06-27T18:56:36.749Z,25.47
2018-06-27T18:59:06.217Z,25.34
2018-06-27T19:01:35.986Z,25.21
2018-06-27T19:04:05.821Z,25.11
2018-06-27T19:06:35.133Z,25.13
2018-06-27T19:09:07.007Z,24.99
2018-06-27T19:11:36.547Z,25.01
2018-06-27T19:14:06.233Z,25.02
2018-06-27T19:16:36.057Z,24.90
2018-06-27T19:19:06.001Z,24.90
2018-06-27T19:21:36.335Z,24.72
2018-06-27T19:24:05.878Z,24.31
2018-06-27T19:26:35.248Z,24.26
2018-06-27T19:29:05.485Z,23.78
2018-06-27T19:31:35.509Z,23.77
2018-06-27T19:34:05.253Z,23.46
2018-06-27T19:36:35.091Z,23.57
2018-06-27T19:39:06.673Z,23.50
2018-06-27T19:41:36.464Z,23.27
2018-06-27T19:44:05.732Z,23.40
2018-06-27T19:46:35.684Z,23.30
2018-06-27T19:49:05.824Z,23.36
2018-06-27T19:51:35.521Z,23.31
2018-06-27T19:54:05.250Z,23.21
2018-06-27T19:56:34.621Z,23.17
2018-06-27T19:59:03.978Z,23.03
2018-06-27T20:01:33.707Z,23.11
2018-06-27T20:04:03.031Z,23.10
2018-06-27T20:06:32.390Z,23.09
2018-06-27T20:09:02.924Z,22.99
2018-06-27T20:11:33.910Z,23.01
2018-06-27T20:14:03.660Z,22.96
2018-06-27T20:16:33.551Z,22.79
2018-06-27T20:19:02.977Z,22.68
2018-06-27T20:21:32.429Z,22.77
2018-06-27T20:24:02.181Z,22.90
2018-06-27T20:26:31.464Z,22.89
2018-06-27T20:29:00.819Z,22.81
2018-06-27T20:31:30.684Z,22.74
2018-06-27T20:34:00.028Z,22.66
2018-06-27T20:36:29.357Z,22.69
2018-06-27T20:38:58.704Z,22.62
2018-06-27T20:41:28.117Z,22.13
2018-06-27T20:43:57.816Z,22.18
2018-06-27T20:46:27.143Z,21.62
2018-06-27T20:48:56.873Z,21.81
2018-06-27T20:51:26.405Z,21.86
2018-06-27T20:53:55.995Z,21.59
2018-06-27T20:56:25.676Z,21.46
2018-06-27T20:58:55.388Z,21.49
2018-06-27T21:01:25.510Z,21.28
2018-06-27T21:03:56.382Z,21.33
2018-06-27T21:06:25.697Z,21.41
2018-06-27T21:08:55.082Z,21.08
2018-06-27T21:11:25.328Z,21.07
2018-06-27T21:13:55.239Z,20.95
2018-06-27T21:16:24.868Z,21.06
2018-06-27T21:18:54.463Z,21.00
2018-06-27T21:21:23.804Z,20.89
2018-06-27T21:23:53.458Z,20.82
2018-06-27T21:26:23.055Z,20.70
2018-06-27T21:28:52.372Z,20.68
2018-06-27T21:31:24.474Z,20.53
2018-06-27T21:33:54.098Z,20.34
2018-06-27T21:36:23.408Z,20.37
2018-06-27T21:38:53.120Z,20.48
2018-06-27T21:41:22.688Z,20.44
2018-06-27T21:43:52.436Z,20.52
2018-06-27T21:46:21.798Z,20.27
2018-06-27T21:48:51.125Z,20.21
2018-06-27T21:51:20.458Z,20.26
2018-06-27T21:53:49.807Z,20.23
2018-06-27T21:56:20.119Z,20.30
2018-06-27T21:58:49.457Z,20.19
2018-06-27T22:01:18.748Z,20.30
2018-06-27T22:03:48.669Z,20.10
2018-06-27T22:06:18.219Z,20.09
2018-06-27T22:08:47.856Z,19.99
2018-06-27T22:11:17.937Z,19.85
2018-06-27T22:13:47.395Z,19.83
2018-06-27T22:16:17.037Z,19.89
2018-06-27T22:18:46.719Z,19.97
2018-06-27T22:21:16.119Z,20.03
2018-06-27T22:23:45.827Z,19.96
2018-06-27T22:26:15.177Z,19.86
2018-06-27T22:28:45.105Z,19.98
2018-06-27T22:31:14.692Z,20.01
2018-06-27T22:33:45.901Z,19.94
2018-06-27T22:36:15.277Z,19.71
2018-06-27T22:38:44.608Z,19.71
2018-06-27T22:41:14.321Z,19.90
2018-06-27T22:43:43.890Z,19.58
2018-06-27T22:46:13.224Z,19.68
2018-06-27T22:48:43.590Z,19.62
2018-06-27T22:51:12.972Z,19.60
2018-06-27T22:53:42.323Z,19.49
2018-06-27T22:56:12.027Z,19.49
2018-06-27T22:58:42.153Z,19.51
2018-06-27T23:01:11.980Z,19.49
2018-06-27T23:03:41.313Z,19.39
2018-06-27T23:06:10.930Z,19.56
2018-06-27T23:08:41.154Z,19.56
2018-06-27T23:11:10.901Z,19.13
2018-06-27T23:13:40.208Z,19.22
2018-06-27T23:16:09.559Z,19.07
2018-06-27T23:18:38.878Z,18.70
2018-06-27T23:21:08.489Z,18.58
2018-06-27T23:23:37.813Z,18.31
2018-06-27T23:26:08.187Z,18.20
2018-06-27T23:28:37.846Z,18.03
2018-06-27T23:31:07.501Z,18.24
2018-06-27T23:33:36.855Z,18.18
2018-06-27T23:36:06.190Z,18.33
2018-06-27T23:38:35.559Z,18.34
2018-06-27T23:41:05.263Z,18.41
2018-06-27T23:43:34.596Z,18.45
2018-06-27T23:46:04.588Z,18.26
2018-06-27T23:48:34.404Z,18.25
2018-06-27T23:51:03.886Z,18.25
2018-06-27T23:53:33.348Z,18.06
2018-06-27T23:56:02.940Z,18.08
2018-06-27T23:58:33.011Z,17.89
